createdAt,value
2022-10-18T00:02:40.101Z,14.58
2022-10-18T00:07:38.918Z,14.54
2022-10-18T00:12:38.471Z,14.68
2022-10-18T00:17:38.738Z,14.60
2022-10-18T00:22:39.817Z,14.46
2022-10-18T00:27:38.531Z,14.42
2022-10-18T00:32:38.716Z,14.38
2022-10-18T00:37:37.476Z,14.42
2022-10-18T00:42:37.713Z,14.37
2022-10-18T00:47:36.820Z,14.28
2022-10-18T00:52:43.480Z,14.40
2022-10-18T00:57:43.992Z,14.27
2022-10-18T01:02:44.979Z,14.20
2022-10-18T01:07:55.428Z,14.18
2022-10-18T01:13:03.246Z,14.17
2022-10-18T01:18:26.165Z,14.16
2022-10-18T01:23:33.997Z,14.20
2022-10-18T01:28:39.306Z,14.09
2022-10-18T01:39:05.923Z,14.03
2022-10-18T01:44:09.563Z,14.10
2022-10-18T01:49:08.526Z,14.09
2022-10-18T01:54:08.914Z,13.98
2022-10-18T01:59:20.796Z,13.95
2022-10-18T02:04:46.890Z,13.95
2022-10-18T02:09:52.986Z,13.83
2022-10-18T02:14:53.225Z,13.83
2022-10-18T02:19:55.888Z,13.82
2022-10-18T02:24:58.946Z,13.76
2022-10-18T02:29:58.602Z,13.66
2022-10-18T02:35:25.912Z,13.63
2022-10-18T02:40:26.478Z,13.53
2022-10-18T02:45:26.511Z,13.66
2022-10-18T02:50:25.140Z,13.62
2022-10-18T02:55:23.849Z,13.62
2022-10-18T03:00:22.875Z,13.49
2022-10-18T03:05:21.493Z,13.44
2022-10-18T03:10:20.465Z,13.43
2022-10-18T03:15:19.183Z,13.26
2022-10-18T03:20:17.948Z,13.26
2022-10-18T03:25:16.667Z,13.28
2022-10-18T03:30:16.077Z,13.20
2022-10-18T03:35:14.794Z,13.22
2022-10-18T03:40:13.494Z,13.00
2022-10-18T03:45:12.105Z,13.10
2022-10-18T03:50:10.811Z,13.24
2022-10-18T03:55:09.554Z,13.20
2022-10-18T04:00:08.704Z,13.26
2022-10-18T04:05:16.397Z,13.36
2022-10-18T04:10:15.108Z,13.54
2022-10-18T04:15:13.911Z,13.58
2022-10-18T04:20:13.047Z,13.64
2022-10-18T04:25:11.874Z,13.60
2022-10-18T04:30:11.221Z,13.78
2022-10-18T04:35:10.226Z,13.69
2022-10-18T04:40:09.812Z,13.86
2022-10-18T04:45:09.414Z,14.47
2022-10-18T04:50:08.453Z,15.68
2022-10-18T04:55:07.411Z,15.61
2022-10-18T05:00:07.139Z,15.68
2022-10-18T05:05:09.125Z,16.07
2022-10-18T05:10:10.748Z,15.61
2022-10-18T05:15:10.164Z,14.89
2022-10-18T05:20:09.593Z,14.36
2022-10-18T05:25:09.223Z,14.23
2022-10-18T05:30:08.248Z,14.12
2022-10-18T05:35:07.402Z,14.00
2022-10-18T05:40:06.650Z,13.79
2022-10-18T05:45:05.749Z,13.91
2022-10-18T05:50:04.756Z,13.97
2022-10-18T05:55:03.713Z,13.86
2022-10-18T06:00:02.671Z,13.88
2022-10-18T06:05:10.560Z,13.84
2022-10-18T06:10:09.803Z,13.57
2022-10-18T06:15:08.751Z,13.51
2022-10-18T06:20:08.445Z,13.62
2022-10-18T06:25:07.398Z,13.79
2022-10-18T06:30:06.813Z,13.83
2022-10-18T06:35:05.954Z,14.03
2022-10-18T06:40:05.949Z,14.10
2022-10-18T06:45:05.059Z,14.09
2022-10-18T06:50:03.972Z,14.00
2022-10-18T06:55:06.046Z,14.13
2022-10-18T07:00:08.131Z,14.05
2022-10-18T07:05:11.156Z,14.16
2022-10-18T07:10:13.010Z,14.39
2022-10-18T07:15:12.067Z,14.33
2022-10-18T07:20:10.750Z,14.30
2022-10-18T07:25:09.800Z,14.41
2022-10-18T07:30:11.033Z,14.48
2022-10-18T07:40:09.200Z,14.41
2022-10-18T07:45:08.681Z,14.61
2022-10-18T07:50:07.806Z,14.80
2022-10-18T07:55:06.865Z,14.74
2022-10-18T08:00:06.433Z,14.82
2022-10-18T08:05:10.207Z,15.11
2022-10-18T08:10:09.360Z,14.99
2022-10-18T08:15:08.694Z,14.98
2022-10-18T08:20:12.707Z,15.01
2022-10-18T08:25:25.708Z,15.02
2022-10-18T08:30:24.546Z,15.22
2022-10-18T08:35:23.386Z,15.52
2022-10-18T08:40:22.275Z,15.57
2022-10-18T08:45:30.542Z,15.66
2022-10-18T08:50:41.235Z,15.75
2022-10-18T08:55:46.201Z,15.71
2022-10-18T09:01:06.103Z,15.68
2022-10-18T09:06:28.495Z,15.67
2022-10-18T09:11:33.502Z,15.70
2022-10-18T09:16:44.714Z,15.73
2022-10-18T09:21:55.078Z,15.79
2022-10-18T09:27:01.839Z,15.98
2022-10-18T09:32:06.478Z,16.13
2022-10-18T09:37:12.188Z,16.45
2022-10-18T09:42:26.936Z,16.51
2022-10-18T09:47:42.517Z,16.61
2022-10-18T09:52:51.870Z,16.27
2022-10-18T09:57:56.555Z,16.49
2022-10-18T10:02:55.792Z,16.43
2022-10-18T10:07:59.951Z,16.56
2022-10-18T10:13:04.160Z,16.49
2022-10-18T10:18:21.850Z,16.78
2022-10-18T10:23:25.163Z,17.07
2022-10-18T10:28:28.842Z,17.30
2022-10-18T10:33:37.114Z,17.15
2022-10-18T10:38:35.890Z,17.15
2022-10-18T10:43:39.174Z,17.33
2022-10-18T10:49:27.936Z,17.08
2022-10-18T10:54:23.412Z,16.82
2022-10-18T10:59:26.222Z,16.61
2022-10-18T11:04:28.415Z,16.39
2022-10-18T11:09:48.075Z,16.08
2022-10-18T11:14:52.828Z,16.07
2022-10-18T11:20:05.158Z,15.99
2022-10-18T11:25:05.804Z,15.91
2022-10-18T11:30:29.722Z,15.86
2022-10-18T11:35:40.917Z,15.76
2022-10-18T11:40:42.342Z,15.82
2022-10-18T11:45:52.676Z,15.88
2022-10-18T11:51:05.509Z,15.82
2022-10-18T11:56:22.929Z,15.94
2022-10-18T12:01:40.879Z,16.00
2022-10-18T12:06:43.127Z,15.87
2022-10-18T12:11:53.543Z,15.88
2022-10-18T12:17:27.846Z,15.79
2022-10-18T12:22:28.672Z,15.69
2022-10-18T12:27:53.632Z,15.72
2022-10-18T12:33:08.715Z,15.77
2022-10-18T12:38:23.867Z,15.66
2022-10-18T12:43:36.924Z,15.67
2022-10-18T12:48:48.859Z,15.57
2022-10-18T12:53:55.062Z,15.77
2022-10-18T12:59:15.809Z,16.01
2022-10-18T13:04:35.253Z,15.92
2022-10-18T13:10:12.889Z,15.87
2022-10-18T13:15:33.436Z,15.82
2022-10-18T13:20:50.826Z,15.77
2022-10-18T13:26:44.776Z,15.93
2022-10-18T13:32:02.716Z,15.86
2022-10-18T13:37:02.709Z,15.92
2022-10-18T13:42:01.466Z,15.84
2022-10-18T13:47:00.240Z,15.82
2022-10-18T13:52:20.766Z,15.87
2022-10-18T13:57:30.177Z,15.82
2022-10-18T14:02:51.554Z,15.82
2022-10-18T14:07:58.359Z,15.77
2022-10-18T14:13:02.591Z,15.74
2022-10-18T14:18:15.416Z,15.80
2022-10-18T14:23:21.335Z,16.03
2022-10-18T14:28:31.397Z,16.05
2022-10-18T14:33:33.028Z,16.06
2022-10-18T14:38:32.232Z,16.21
2022-10-18T14:43:30.937Z,16.17
2022-10-18T14:48:29.662Z,16.15
2022-10-18T14:53:37.428Z,15.92
2022-10-18T14:58:37.984Z,15.93
2022-10-18T15:03:36.957Z,15.94
2022-10-18T15:08:37.770Z,15.78
2022-10-18T15:13:51.982Z,15.73
2022-10-18T15:19:03.984Z,15.83
2022-10-18T15:24:20.609Z,15.61
2022-10-18T15:29:20.768Z,15.64
2022-10-18T15:34:27.744Z,15.54
2022-10-18T15:39:29.397Z,15.50
2022-10-18T15:44:32.420Z,15.37
2022-10-18T15:49:46.609Z,15.42
2022-10-18T15:54:45.397Z,15.30
2022-10-18T15:59:58.191Z,15.19
2022-10-18T16:04:59.505Z,15.34
2022-10-18T16:09:58.327Z,15.31
2022-10-18T16:14:57.011Z,15.40
2022-10-18T16:19:55.943Z,14.91
2022-10-18T16:24:54.563Z,14.94
2022-10-18T16:29:53.275Z,14.98
2022-10-18T16:34:52.014Z,14.82
2022-10-18T16:39:50.927Z,14.81
2022-10-18T16:44:49.818Z,14.82
2022-10-18T16:49:49.214Z,14.51
2022-10-18T16:54:47.982Z,14.39
2022-10-18T16:59:46.705Z,14.35
2022-10-18T17:04:45.364Z,14.25
2022-10-18T17:09:44.129Z,14.31
2022-10-18T17:14:42.849Z,14.30
2022-10-18T17:19:41.558Z,14.33
2022-10-18T17:24:40.242Z,14.34
2022-10-18T17:29:40.990Z,14.34
2022-10-18T17:39:38.436Z,14.32
2022-10-18T17:44:37.228Z,14.37
2022-10-18T17:49:36.335Z,14.16
2022-10-18T17:54:35.016Z,14.09
2022-10-18T17:59:33.672Z,13.94
2022-10-18T18:04:32.362Z,13.87
2022-10-18T18:09:31.519Z,13.76
2022-10-18T18:14:30.256Z,13.78
2022-10-18T18:19:29.117Z,13.91
2022-10-18T18:24:28.391Z,14.07
2022-10-18T18:29:27.958Z,13.80
2022-10-18T18:34:26.710Z,13.92
2022-10-18T18:39:29.646Z,14.10
2022-10-18T18:44:28.804Z,14.19
2022-10-18T18:49:27.990Z,13.99
2022-10-18T18:54:28.712Z,14.11
2022-10-18T18:59:27.527Z,13.90
2022-10-18T19:04:26.481Z,13.94
2022-10-18T19:09:27.448Z,13.58
2022-10-18T19:14:26.429Z,13.63
2022-10-18T19:19:27.113Z,13.63
2022-10-18T19:24:27.916Z,13.78
2022-10-18T19:29:30.607Z,13.79
2022-10-18T19:34:30.605Z,13.86
2022-10-18T19:39:31.446Z,13.77
2022-10-18T19:44:32.388Z,13.45
2022-10-18T19:49:31.355Z,13.53
2022-10-18T19:54:30.228Z,13.51
2022-10-18T19:59:29.286Z,13.46
2022-10-18T20:04:28.292Z,13.28
2022-10-18T20:09:27.166Z,12.98
2022-10-18T20:14:26.008Z,12.91
2022-10-18T20:19:24.702Z,12.77
2022-10-18T20:24:23.656Z,12.72
2022-10-18T20:29:25.221Z,12.75
2022-10-18T20:34:26.001Z,12.78
2022-10-18T20:39:24.890Z,12.59
2022-10-18T20:44:25.407Z,12.38
2022-10-18T20:49:24.169Z,12.29
2022-10-18T20:54:22.886Z,12.73
2022-10-18T20:59:21.602Z,12.45
2022-10-18T21:04:20.367Z,12.48
2022-10-18T21:09:20.050Z,12.56
2022-10-18T21:14:21.422Z,12.80
2022-10-18T21:19:25.437Z,12.90
2022-10-18T21:24:25.417Z,12.94
2022-10-18T21:29:27.394Z,12.99
2022-10-18T21:34:26.569Z,12.83
2022-10-18T21:39:25.529Z,12.78
2022-10-18T21:44:24.295Z,12.80
2022-10-18T21:49:25.103Z,12.76
2022-10-18T21:54:23.843Z,13.06
2022-10-18T21:59:22.631Z,13.29
2022-10-18T22:04:24.085Z,13.26
2022-10-18T22:09:23.092Z,13.32
2022-10-18T22:14:22.468Z,13.09
2022-10-18T22:19:21.349Z,12.99
2022-10-18T22:24:20.268Z,13.23
2022-10-18T22:29:21.237Z,13.15
2022-10-18T22:34:28.896Z,13.34
2022-10-18T22:39:27.712Z,13.21
2022-10-18T22:44:26.641Z,13.35
2022-10-18T22:49:25.369Z,13.46
2022-10-18T22:54:24.015Z,13.44
2022-10-18T22:59:23.139Z,13.72
2022-10-18T23:04:21.976Z,13.79
2022-10-18T23:09:20.715Z,13.74
2022-10-18T23:14:19.479Z,13.73
2022-10-18T23:19:18.234Z,13.58
2022-10-18T23:24:16.930Z,13.65
2022-10-18T23:29:15.949Z,13.57
2022-10-18T23:34:15.265Z,13.31
2022-10-18T23:39:13.958Z,13.29
2022-10-18T23:44:12.654Z,13.29
2022-10-18T23:49:11.332Z,13.12
2022-10-18T23:54:10.077Z,13.25
2022-10-18T23:59:08.733Z,13.18
